sensor_id;sensor_type;location;lat;lon;timestamp;pressure;altitude;pressure_sealevel;temperature;humidity
58761;BME280;44529;47.464;19.014;2023-05-15T00:02:40;99556.34;;;12.20;100.00
58761;BME280;44529;47.464;19.014;2023-05-15T00:05:45;99557.72;;;12.27;100.00
58761;BME280;44529;47.464;19.014;2023-05-15T00:08:47;99558.41;;;12.24;100.00
58761;BME280;44529;47.464;19.014;2023-05-15T00:11:49;99557.28;;;12.25;100.00
58761;BME280;44529;47.464;19.014;2023-05-15T00:14:52;99557.06;;;12.17;100.00
58761;BME280;44529;47.464;19.014;2023-05-15T00:17:54;99557.72;;;12.14;100.00
58761;BME280;44529;47.464;19.014;2023-05-15T00:20:56;99562.47;;;12.17;100.00
58761;BME280;44529;47.464;19.014;2023-05-15T00:23:59;99572.28;;;12.22;100.00
58761;BME280;44529;47.464;19.014;2023-05-15T00:27:02;99580.09;;;12.24;100.00
58761;BME280;44529;47.464;19.014;2023-05-15T00:30:05;99595.22;;;12.25;100.00
58761;BME280;44529;47.464;19.014;2023-05-15T00:33:07;99591.03;;;12.27;100.00
58761;BME280;44529;47.464;19.014;2023-05-15T00:36:11;99579.19;;;12.32;100.00
58761;BME280;44529;47.464;19.014;2023-05-15T00:39:13;99581.41;;;12.30;100.00
58761;BME280;44529;47.464;19.014;2023-05-15T00:42:16;99574.41;;;12.29;100.00
58761;BME280;44529;47.464;19.014;2023-05-15T00:45:18;99574.91;;;12.31;100.00
58761;BME280;44529;47.464;19.014;2023-05-15T00:48:23;99557.38;;;12.28;100.00
58761;BME280;44529;47.464;19.014;2023-05-15T00:51:26;99565.50;;;12.28;100.00
58761;BME280;44529;47.464;19.014;2023-05-15T00:54:28;99569.13;;;12.32;100.00
58761;BME280;44529;47.464;19.014;2023-05-15T00:57:32;99552.28;;;12.27;100.00
58761;BME280;44529;47.464;19.014;2023-05-15T01:00:34;99559.28;;;12.28;100.00
58761;BME280;44529;47.464;19.014;2023-05-15T01:03:38;99556.12;;;12.26;100.00
58761;BME280;44529;47.464;19.014;2023-05-15T01:06:41;99551.94;;;12.28;100.00
58761;BME280;44529;47.464;19.014;2023-05-15T01:09:43;99536.03;;;12.27;100.00
58761;BME280;44529;47.464;19.014;2023-05-15T01:12:49;99537.50;;;12.24;100.00
58761;BME280;44529;47.464;19.014;2023-05-15T01:15:53;99536.25;;;12.22;100.00
58761;BME280;44529;47.464;19.014;2023-05-15T01:18:56;99525.97;;;12.27;100.00
58761;BME280;44529;47.464;19.014;2023-05-15T01:25:46;99528.34;;;12.29;100.00
58761;BME280;44529;47.464;19.014;2023-05-15T01:29:07;99518.19;;;12.26;100.00
58761;BME280;44529;47.464;19.014;2023-05-15T01:35:39;99520.69;;;12.31;100.00
58761;BME280;44529;47.464;19.014;2023-05-15T01:38:51;99527.56;;;12.28;100.00
58761;BME280;44529;47.464;19.014;2023-05-15T01:42:01;99530.81;;;12.34;100.00
58761;BME280;44529;47.464;19.014;2023-05-15T01:45:07;99514.91;;;12.32;100.00
58761;BME280;44529;47.464;19.014;2023-05-15T01:48:12;99504.84;;;12.33;100.00
58761;BME280;44529;47.464;19.014;2023-05-15T01:51:17;99498.41;;;12.37;100.00
58761;BME280;44529;47.464;19.014;2023-05-15T01:54:21;99483.50;;;12.31;100.00
58761;BME280;44529;47.464;19.014;2023-05-15T01:57:24;99489.72;;;12.32;100.00
58761;BME280;44529;47.464;19.014;2023-05-15T02:00:31;99499.78;;;12.31;100.00
58761;BME280;44529;47.464;19.014;2023-05-15T02:03:34;99501.94;;;12.26;100.00
58761;BME280;44529;47.464;19.014;2023-05-15T02:06:38;99509.28;;;12.25;100.00
58761;BME280;44529;47.464;19.014;2023-05-15T02:09:43;99511.19;;;12.25;100.00
58761;BME280;44529;47.464;19.014;2023-05-15T02:12:45;99517.06;;;12.27;100.00
58761;BME280;44529;47.464;19.014;2023-05-15T02:15:48;99519.75;;;12.27;100.00
58761;BME280;44529;47.464;19.014;2023-05-15T02:18:51;99522.13;;;12.28;100.00
58761;BME280;44529;47.464;19.014;2023-05-15T02:21:54;99537.72;;;12.31;100.00
58761;BME280;44529;47.464;19.014;2023-05-15T02:24:56;99539.41;;;12.36;100.00
58761;BME280;44529;47.464;19.014;2023-05-15T02:27:59;99546.31;;;12.33;100.00
58761;BME280;44529;47.464;19.014;2023-05-15T02:31:13;99549.47;;;12.35;100.00
58761;BME280;44529;47.464;19.014;2023-05-15T02:34:22;99556.44;;;12.36;100.00
58761;BME280;44529;47.464;19.014;2023-05-15T02:37:30;99553.22;;;12.31;100.00
58761;BME280;44529;47.464;19.014;2023-05-15T02:40:33;99558.28;;;12.32;100.00
58761;BME280;44529;47.464;19.014;2023-05-15T02:43:40;99548.56;;;12.31;100.00
58761;BME280;44529;47.464;19.014;2023-05-15T02:46:46;99551.50;;;12.26;100.00
58761;BME280;44529;47.464;19.014;2023-05-15T02:49:49;99542.16;;;12.24;100.00
58761;BME280;44529;47.464;19.014;2023-05-15T02:53:00;99533.75;;;12.29;100.00
58761;BME280;44529;47.464;19.014;2023-05-15T02:56:03;99540.31;;;12.28;100.00
58761;BME280;44529;47.464;19.014;2023-05-15T02:59:06;99533.31;;;12.27;100.00
58761;BME280;44529;47.464;19.014;2023-05-15T03:02:08;99537.25;;;12.29;100.00
58761;BME280;44529;47.464;19.014;2023-05-15T03:05:11;99523.97;;;12.24;100.00
58761;BME280;44529;47.464;19.014;2023-05-15T03:08:13;99518.19;;;12.26;100.00
58761;BME280;44529;47.464;19.014;2023-05-15T03:11:16;99523.72;;;12.29;100.00
58761;BME280;44529;47.464;19.014;2023-05-15T03:14:20;99524.19;;;12.31;100.00
58761;BME280;44529;47.464;19.014;2023-05-15T03:17:22;99515.25;;;12.31;100.00
58761;BME280;44529;47.464;19.014;2023-05-15T03:20:24;99508.47;;;12.25;100.00
58761;BME280;44529;47.464;19.014;2023-05-15T03:23:27;99496.38;;;12.22;100.00
58761;BME280;44529;47.464;19.014;2023-05-15T03:26:29;99491.09;;;12.26;100.00
58761;BME280;44529;47.464;19.014;2023-05-15T03:29:31;99483.19;;;12.20;100.00
58761;BME280;44529;47.464;19.014;2023-05-15T03:32:34;99470.31;;;12.17;100.00
58761;BME280;44529;47.464;19.014;2023-05-15T03:35:36;99462.41;;;12.25;100.00
58761;BME280;44529;47.464;19.014;2023-05-15T03:38:38;99465.75;;;12.34;100.00
58761;BME280;44529;47.464;19.014;2023-05-15T03:41:42;99471.41;;;12.29;100.00
58761;BME280;44529;47.464;19.014;2023-05-15T03:44:44;99463.41;;;12.32;100.00
58761;BME280;44529;47.464;19.014;2023-05-15T03:47:47;99454.72;;;12.27;100.00
58761;BME280;44529;47.464;19.014;2023-05-15T03:50:49;99460.56;;;12.29;100.00
58761;BME280;44529;47.464;19.014;2023-05-15T03:53:52;99461.56;;;12.36;100.00
58761;BME280;44529;47.464;19.014;2023-05-15T03:56:56;99470.53;;;12.37;100.00
58761;BME280;44529;47.464;19.014;2023-05-15T03:59:59;99468.25;;;12.39;100.00
58761;BME280;44529;47.464;19.014;2023-05-15T04:03:02;99462.69;;;12.35;100.00
58761;BME280;44529;47.464;19.014;2023-05-15T04:06:04;99458.75;;;12.33;100.00
58761;BME280;44529;47.464;19.014;2023-05-15T04:09:07;99457.75;;;12.37;100.00
58761;BME280;44529;47.464;19.014;2023-05-15T04:12:09;99456.62;;;12.38;100.00
58761;BME280;44529;47.464;19.014;2023-05-15T04:15:23;99441.47;;;12.37;100.00
58761;BME280;44529;47.464;19.014;2023-05-15T04:18:26;99437.87;;;12.33;100.00
58761;BME280;44529;47.464;19.014;2023-05-15T04:21:28;99444.78;;;12.31;100.00
58761;BME280;44529;47.464;19.014;2023-05-15T04:24:31;99444.06;;;12.34;100.00
58761;BME280;44529;47.464;19.014;2023-05-15T04:27:33;99450.84;;;12.40;100.00
58761;BME280;44529;47.464;19.014;2023-05-15T04:30:35;99436.94;;;12.41;100.00
58761;BME280;44529;47.464;19.014;2023-05-15T04:33:37;99430.25;;;12.51;100.00
58761;BME280;44529;47.464;19.014;2023-05-15T04:36:40;99458.94;;;12.52;100.00
58761;BME280;44529;47.464;19.014;2023-05-15T04:39:44;99474.06;;;12.53;100.00
58761;BME280;44529;47.464;19.014;2023-05-15T04:42:46;99471.00;;;12.55;100.00
58761;BME280;44529;47.464;19.014;2023-05-15T04:45:48;99467.06;;;12.52;100.00
58761;BME280;44529;47.464;19.014;2023-05-15T04:48:51;99482.66;;;12.55;100.00
58761;BME280;44529;47.464;19.014;2023-05-15T04:51:53;99480.06;;;12.59;100.00
58761;BME280;44529;47.464;19.014;2023-05-15T04:54:56;99478.47;;;12.58;100.00
58761;BME280;44529;47.464;19.014;2023-05-15T04:57:58;99494.75;;;12.58;100.00
58761;BME280;44529;47.464;19.014;2023-05-15T05:01:01;99521.09;;;12.57;100.00
58761;BME280;44529;47.464;19.014;2023-05-15T05:04:05;99511.91;;;12.62;100.00
58761;BME280;44529;47.464;19.014;2023-05-15T05:07:08;99511.56;;;12.63;100.00
58761;BME280;44529;47.464;19.014;2023-05-15T05:10:10;99519.03;;;12.66;100.00
58761;BME280;44529;47.464;19.014;2023-05-15T05:13:12;99512.03;;;12.65;100.00
58761;BME280;44529;47.464;19.014;2023-05-15T05:16:15;99512.44;;;12.67;100.00
58761;BME280;44529;47.464;19.014;2023-05-15T05:19:17;99522.06;;;12.65;100.00
58761;BME280;44529;47.464;19.014;2023-05-15T05:22:19;99527.84;;;12.63;100.00
58761;BME280;44529;47.464;19.014;2023-05-15T05:25:22;99530.31;;;12.68;100.00
58761;BME280;44529;47.464;19.014;2023-05-15T05:28:24;99525.34;;;12.70;100.00
58761;BME280;44529;47.464;19.014;2023-05-15T05:31:27;99519.69;;;12.76;100.00
58761;BME280;44529;47.464;19.014;2023-05-15T05:34:29;99520.47;;;12.76;100.00
58761;BME280;44529;47.464;19.014;2023-05-15T05:37:32;99514.00;;;12.81;100.00
58761;BME280;44529;47.464;19.014;2023-05-15T05:40:34;99505.53;;;12.82;100.00
58761;BME280;44529;47.464;19.014;2023-05-15T05:43:36;99507.13;;;12.83;100.00
58761;BME280;44529;47.464;19.014;2023-05-15T05:46:39;99509.12;;;12.86;100.00
58761;BME280;44529;47.464;19.014;2023-05-15T05:49:41;99517.81;;;12.92;100.00
58761;BME280;44529;47.464;19.014;2023-05-15T05:52:44;99521.28;;;13.05;100.00
58761;BME280;44529;47.464;19.014;2023-05-15T05:55:47;99526.47;;;13.10;100.00
58761;BME280;44529;47.464;19.014;2023-05-15T05:58:49;99538.66;;;13.16;100.00
58761;BME280;44529;47.464;19.014;2023-05-15T06:01:52;99543.72;;;13.17;100.00
58761;BME280;44529;47.464;19.014;2023-05-15T06:04:54;99540.47;;;13.12;100.00
58761;BME280;44529;47.464;19.014;2023-05-15T06:07:57;99524.66;;;13.14;100.00
58761;BME280;44529;47.464;19.014;2023-05-15T06:10:59;99525.84;;;13.28;100.00
58761;BME280;44529;47.464;19.014;2023-05-15T06:14:02;99536.87;;;13.36;100.00
58761;BME280;44529;47.464;19.014;2023-05-15T06:17:05;99543.06;;;13.48;100.00
58761;BME280;44529;47.464;19.014;2023-05-15T06:20:07;99549.09;;;13.58;100.00
58761;BME280;44529;47.464;19.014;2023-05-15T06:23:11;99548.41;;;13.61;100.00
58761;BME280;44529;47.464;19.014;2023-05-15T06:26:13;99539.66;;;13.67;100.00
58761;BME280;44529;47.464;19.014;2023-05-15T06:29:16;99561.81;;;13.69;100.00
58761;BME280;44529;47.464;19.014;2023-05-15T06:32:18;99557.19;;;13.70;100.00
58761;BME280;44529;47.464;19.014;2023-05-15T06:35:21;99555.34;;;13.74;100.00
58761;BME280;44529;47.464;19.014;2023-05-15T06:38:25;99552.09;;;13.84;100.00
58761;BME280;44529;47.464;19.014;2023-05-15T06:41:27;99554.22;;;13.91;100.00
58761;BME280;44529;47.464;19.014;2023-05-15T06:44:30;99547.12;;;13.86;100.00
58761;BME280;44529;47.464;19.014;2023-05-15T06:47:32;99531.53;;;13.99;100.00
58761;BME280;44529;47.464;19.014;2023-05-15T06:50:34;99523.88;;;14.04;100.00
58761;BME280;44529;47.464;19.014;2023-05-15T06:53:37;99521.41;;;14.15;100.00
58761;BME280;44529;47.464;19.014;2023-05-15T06:56:39;99520.09;;;14.09;100.00
58761;BME280;44529;47.464;19.014;2023-05-15T06:59:42;99519.00;;;14.29;100.00
58761;BME280;44529;47.464;19.014;2023-05-15T07:02:44;99515.81;;;14.59;100.00
58761;BME280;44529;47.464;19.014;2023-05-15T07:05:46;99520.50;;;14.78;100.00
58761;BME280;44529;47.464;19.014;2023-05-15T07:08:49;99531.16;;;14.86;100.00
58761;BME280;44529;47.464;19.014;2023-05-15T07:11:51;99531.03;;;14.99;100.00
58761;BME280;44529;47.464;19.014;2023-05-15T07:14:53;99529.09;;;14.99;100.00
58761;BME280;44529;47.464;19.014;2023-05-15T07:17:56;99539.19;;;14.99;100.00
58761;BME280;44529;47.464;19.014;2023-05-15T07:20:58;99539.97;;;14.99;100.00
58761;BME280;44529;47.464;19.014;2023-05-15T07:24:01;99549.66;;;14.97;100.00
58761;BME280;44529;47.464;19.014;2023-05-15T07:27:03;99561.25;;;14.94;100.00
58761;BME280;44529;47.464;19.014;2023-05-15T07:30:06;99567.41;;;14.71;100.00
58761;BME280;44529;47.464;19.014;2023-05-15T07:33:08;99588.22;;;14.63;100.00
58761;BME280;44529;47.464;19.014;2023-05-15T07:36:11;99567.25;;;14.64;100.00
58761;BME280;44529;47.464;19.014;2023-05-15T07:39:13;99558.94;;;14.57;100.00
58761;BME280;44529;47.464;19.014;2023-05-15T07:42:16;99551.09;;;14.55;100.00
58761;BME280;44529;47.464;19.014;2023-05-15T07:45:18;99532.06;;;14.55;100.00
58761;BME280;44529;47.464;19.014;2023-05-15T07:48:21;99534.88;;;14.59;100.00
58761;BME280;44529;47.464;19.014;2023-05-15T07:51:23;99536.37;;;14.56;100.00
58761;BME280;44529;47.464;19.014;2023-05-15T07:54:26;99538.47;;;14.63;100.00
58761;BME280;44529;47.464;19.014;2023-05-15T07:57:28;99535.44;;;14.68;100.00
58761;BME280;44529;47.464;19.014;2023-05-15T08:00:31;99540.59;;;14.73;100.00
58761;BME280;44529;47.464;19.014;2023-05-15T08:03:33;99547.34;;;14.79;100.00
58761;BME280;44529;47.464;19.014;2023-05-15T08:06:35;99560.16;;;14.79;100.00
58761;BME280;44529;47.464;19.014;2023-05-15T08:09:39;99568.13;;;14.87;100.00
58761;BME280;44529;47.464;19.014;2023-05-15T08:12:41;99562.41;;;14.93;100.00
58761;BME280;44529;47.464;19.014;2023-05-15T08:15:47;99562.53;;;15.00;100.00
58761;BME280;44529;47.464;19.014;2023-05-15T08:18:50;99567.53;;;15.13;100.00
58761;BME280;44529;47.464;19.014;2023-05-15T08:21:55;99566.28;;;15.11;100.00
58761;BME280;44529;47.464;19.014;2023-05-15T08:24:57;99564.06;;;15.16;100.00
58761;BME280;44529;47.464;19.014;2023-05-15T08:28:01;99574.31;;;15.23;100.00
58761;BME280;44529;47.464;19.014;2023-05-15T08:31:03;99572.59;;;15.15;100.00
58761;BME280;44529;47.464;19.014;2023-05-15T08:34:06;99581.63;;;15.19;100.00
58761;BME280;44529;47.464;19.014;2023-05-15T08:37:09;99579.53;;;15.32;100.00
58761;BME280;44529;47.464;19.014;2023-05-15T08:40:12;99569.38;;;15.29;100.00
58761;BME280;44529;47.464;19.014;2023-05-15T08:43:15;99570.53;;;15.28;100.00
58761;BME280;44529;47.464;19.014;2023-05-15T08:46:19;99574.22;;;15.39;100.00
58761;BME280;44529;47.464;19.014;2023-05-15T08:52:53;99560.47;;;16.43;100.00
58761;BME280;44529;47.464;19.014;2023-05-15T08:56:00;99562.66;;;16.60;100.00
58761;BME280;44529;47.464;19.014;2023-05-15T08:59:07;99553.75;;;16.67;100.00
58761;BME280;44529;47.464;19.014;2023-05-15T09:02:12;99554.94;;;16.66;100.00
58761;BME280;44529;47.464;19.014;2023-05-15T09:05:14;99553.94;;;17.08;99.59
58761;BME280;44529;47.464;19.014;2023-05-15T09:08:18;99557.75;;;17.33;98.83
58761;BME280;44529;47.464;19.014;2023-05-15T09:11:25;99567.75;;;16.88;99.94
58761;BME280;44529;47.464;19.014;2023-05-15T09:14:28;99578.84;;;16.72;100.00
58761;BME280;44529;47.464;19.014;2023-05-15T09:17:31;99579.09;;;16.64;100.00
58761;BME280;44529;47.464;19.014;2023-05-15T09:20:35;99581.41;;;16.88;97.76
58761;BME280;44529;47.464;19.014;2023-05-15T09:23:38;99584.25;;;17.29;94.89
58761;BME280;44529;47.464;19.014;2023-05-15T09:26:41;99601.38;;;17.26;95.07
58761;BME280;44529;47.464;19.014;2023-05-15T09:29:44;99595.81;;;17.15;96.41
58761;BME280;44529;47.464;19.014;2023-05-15T09:32:47;99602.00;;;17.12;95.02
58761;BME280;44529;47.464;19.014;2023-05-15T09:35:50;99611.47;;;16.92;96.36
58761;BME280;44529;47.464;19.014;2023-05-15T09:38:58;99623.06;;;16.82;97.64
58761;BME280;44529;47.464;19.014;2023-05-15T09:42:08;99619.06;;;16.75;95.88
58761;BME280;44529;47.464;19.014;2023-05-15T09:45:17;99611.78;;;16.60;94.08
58761;BME280;44529;47.464;19.014;2023-05-15T09:48:20;99608.16;;;16.52;97.36
58761;BME280;44529;47.464;19.014;2023-05-15T09:51:25;99608.22;;;16.56;95.30
58761;BME280;44529;47.464;19.014;2023-05-15T09:54:30;99616.12;;;16.88;95.26
58761;BME280;44529;47.464;19.014;2023-05-15T09:57:32;99609.53;;;16.92;100.00
58761;BME280;44529;47.464;19.014;2023-05-15T10:00:36;99615.69;;;16.86;96.88
58761;BME280;44529;47.464;19.014;2023-05-15T10:06:59;99614.91;;;16.85;94.02
58761;BME280;44529;47.464;19.014;2023-05-15T10:10:03;99609.06;;;17.13;92.12
58761;BME280;44529;47.464;19.014;2023-05-15T10:13:06;99605.78;;;17.34;94.99
58761;BME280;44529;47.464;19.014;2023-05-15T10:16:14;99610.50;;;17.37;96.84
58761;BME280;44529;47.464;19.014;2023-05-15T10:19:22;99623.75;;;17.05;97.21
58761;BME280;44529;47.464;19.014;2023-05-15T10:22:31;99618.13;;;16.68;97.17
58761;BME280;44529;47.464;19.014;2023-05-15T10:28:42;99610.84;;;17.02;93.31
58761;BME280;44529;47.464;19.014;2023-05-15T10:31:47;99618.13;;;17.21;88.72
58761;BME280;44529;47.464;19.014;2023-05-15T10:34:51;99615.97;;;17.37;86.98
58761;BME280;44529;47.464;19.014;2023-05-15T10:37:56;99607.19;;;17.54;90.35
58761;BME280;44529;47.464;19.014;2023-05-15T10:40:59;99614.91;;;17.79;86.95
58761;BME280;44529;47.464;19.014;2023-05-15T10:44:19;99616.16;;;17.85;87.15
58761;BME280;44529;47.464;19.014;2023-05-15T10:47:21;99629.44;;;17.90;87.05
58761;BME280;44529;47.464;19.014;2023-05-15T10:50:25;99621.56;;;17.81;84.73
58761;BME280;44529;47.464;19.014;2023-05-15T10:53:28;99622.88;;;17.61;85.42
58761;BME280;44529;47.464;19.014;2023-05-15T10:56:32;99624.03;;;17.60;86.23
58761;BME280;44529;47.464;19.014;2023-05-15T10:59:34;99619.53;;;17.71;91.74
58761;BME280;44529;47.464;19.014;2023-05-15T11:02:37;99613.22;;;17.71;84.73
58761;BME280;44529;47.464;19.014;2023-05-15T11:06:06;99618.34;;;17.72;84.99
58761;BME280;44529;47.464;19.014;2023-05-15T11:12:56;99623.06;;;17.75;87.27
58761;BME280;44529;47.464;19.014;2023-05-15T11:15:58;99614.94;;;18.27;80.30
58761;BME280;44529;47.464;19.014;2023-05-15T11:19:01;99610.78;;;18.47;78.56
58761;BME280;44529;47.464;19.014;2023-05-15T11:25:10;99598.13;;;18.25;80.16
58761;BME280;44529;47.464;19.014;2023-05-15T11:28:23;99595.69;;;18.12;83.95
58761;BME280;44529;47.464;19.014;2023-05-15T11:31:29;99597.16;;;18.54;80.60
58761;BME280;44529;47.464;19.014;2023-05-15T11:34:33;99597.59;;;18.56;80.77
58761;BME280;44529;47.464;19.014;2023-05-15T11:37:40;99602.19;;;18.45;80.28
58761;BME280;44529;47.464;19.014;2023-05-15T11:43:50;99591.75;;;18.10;84.10
58761;BME280;44529;47.464;19.014;2023-05-15T11:46:52;99593.59;;;17.99;82.59
58761;BME280;44529;47.464;19.014;2023-05-15T11:49:55;99595.84;;;17.90;83.77
58761;BME280;44529;47.464;19.014;2023-05-15T11:53:01;99597.06;;;17.92;83.38
58761;BME280;44529;47.464;19.014;2023-05-15T11:56:06;99591.22;;;17.94;85.85
58761;BME280;44529;47.464;19.014;2023-05-15T11:59:11;99589.69;;;18.00;82.23
58761;BME280;44529;47.464;19.014;2023-05-15T12:02:15;99592.06;;;18.01;82.79
58761;BME280;44529;47.464;19.014;2023-05-15T12:05:18;99590.03;;;17.91;86.34
58761;BME280;44529;47.464;19.014;2023-05-15T12:08:20;99596.72;;;17.97;86.26
58761;BME280;44529;47.464;19.014;2023-05-15T12:11:23;99591.16;;;17.90;84.29
58761;BME280;44529;47.464;19.014;2023-05-15T12:14:30;99589.66;;;17.96;81.37
58761;BME280;44529;47.464;19.014;2023-05-15T12:17:32;99593.62;;;18.02;82.56
58761;BME280;44529;47.464;19.014;2023-05-15T12:20:36;99596.28;;;17.95;79.46
58761;BME280;44529;47.464;19.014;2023-05-15T12:23:39;99601.31;;;17.90;82.99
58761;BME280;44529;47.464;19.014;2023-05-15T12:27:00;99612.72;;;17.95;82.85
58761;BME280;44529;47.464;19.014;2023-05-15T12:30:04;99606.78;;;17.90;82.86
58761;BME280;44529;47.464;19.014;2023-05-15T12:33:09;99601.44;;;18.00;83.40
58761;BME280;44529;47.464;19.014;2023-05-15T12:36:12;99610.03;;;17.99;83.25
58761;BME280;44529;47.464;19.014;2023-05-15T12:39:14;99616.28;;;17.99;83.96
58761;BME280;44529;47.464;19.014;2023-05-15T12:42:17;99615.88;;;17.97;81.55
58761;BME280;44529;47.464;19.014;2023-05-15T12:45:20;99619.03;;;18.03;79.78
58761;BME280;44529;47.464;19.014;2023-05-15T12:48:30;99607.63;;;17.94;79.30
58761;BME280;44529;47.464;19.014;2023-05-15T12:51:41;99616.50;;;17.83;81.53
58761;BME280;44529;47.464;19.014;2023-05-15T12:54:43;99607.28;;;17.99;79.17
58761;BME280;44529;47.464;19.014;2023-05-15T12:57:46;99594.44;;;18.06;77.69
58761;BME280;44529;47.464;19.014;2023-05-15T13:00:50;99591.09;;;18.24;76.33
58761;BME280;44529;47.464;19.014;2023-05-15T13:03:53;99593.88;;;18.31;78.09
58761;BME280;44529;47.464;19.014;2023-05-15T13:06:55;99592.41;;;18.48;76.92
58761;BME280;44529;47.464;19.014;2023-05-15T13:10:03;99583.97;;;18.67;75.40
58761;BME280;44529;47.464;19.014;2023-05-15T13:13:06;99583.66;;;18.76;76.50
58761;BME280;44529;47.464;19.014;2023-05-15T13:16:19;99584.84;;;18.82;76.25
58761;BME280;44529;47.464;19.014;2023-05-15T13:19:22;99578.94;;;18.76;77.43
58761;BME280;44529;47.464;19.014;2023-05-15T13:22:25;99575.44;;;18.76;77.67
58761;BME280;44529;47.464;19.014;2023-05-15T13:25:29;99573.00;;;18.67;76.99
58761;BME280;44529;47.464;19.014;2023-05-15T13:28:33;99570.19;;;18.56;73.85
58761;BME280;44529;47.464;19.014;2023-05-15T13:31:36;99566.63;;;18.49;76.34
58761;BME280;44529;47.464;19.014;2023-05-15T13:34:38;99565.44;;;18.46;77.17
58761;BME280;44529;47.464;19.014;2023-05-15T13:37:40;99571.19;;;18.34;76.09
58761;BME280;44529;47.464;19.014;2023-05-15T13:40:43;99569.94;;;18.21;77.17
58761;BME280;44529;47.464;19.014;2023-05-15T13:43:45;99564.00;;;18.11;76.68
58761;BME280;44529;47.464;19.014;2023-05-15T13:46:48;99563.59;;;18.09;77.45
58761;BME280;44529;47.464;19.014;2023-05-15T13:53:05;99557.94;;;17.88;79.63
58761;BME280;44529;47.464;19.014;2023-05-15T13:56:08;99558.69;;;17.85;79.87
58761;BME280;44529;47.464;19.014;2023-05-15T13:59:11;99556.25;;;17.76;81.83
58761;BME280;44529;47.464;19.014;2023-05-15T14:02:13;99569.78;;;17.62;84.53
58761;BME280;44529;47.464;19.014;2023-05-15T14:05:16;99570.09;;;17.53;83.81
58761;BME280;44529;47.464;19.014;2023-05-15T14:08:18;99561.84;;;17.50;84.16
58761;BME280;44529;47.464;19.014;2023-05-15T14:11:21;99570.34;;;17.41;79.73
58761;BME280;44529;47.464;19.014;2023-05-15T14:14:23;99571.91;;;17.42;80.60
58761;BME280;44529;47.464;19.014;2023-05-15T14:17:27;99578.94;;;17.43;80.38
58761;BME280;44529;47.464;19.014;2023-05-15T14:20:29;99577.75;;;17.41;80.77
58761;BME280;44529;47.464;19.014;2023-05-15T14:23:32;99578.12;;;17.39;84.28
58761;BME280;44529;47.464;19.014;2023-05-15T14:26:34;99574.09;;;17.29;86.12
58761;BME280;44529;47.464;19.014;2023-05-15T14:29:38;99570.59;;;17.29;85.76
58761;BME280;44529;47.464;19.014;2023-05-15T14:32:40;99570.19;;;17.27;89.20
58761;BME280;44529;47.464;19.014;2023-05-15T14:35:42;99578.78;;;17.29;90.12
58761;BME280;44529;47.464;19.014;2023-05-15T14:38:45;99579.91;;;17.24;91.48
58761;BME280;44529;47.464;19.014;2023-05-15T14:41:49;99582.53;;;17.17;92.47
58761;BME280;44529;47.464;19.014;2023-05-15T14:44:51;99580.13;;;17.12;91.30
58761;BME280;44529;47.464;19.014;2023-05-15T14:47:53;99580.09;;;17.09;92.85
58761;BME280;44529;47.464;19.014;2023-05-15T14:50:57;99584.34;;;17.06;94.49
58761;BME280;44529;47.464;19.014;2023-05-15T14:53:59;99583.16;;;17.03;96.81
58761;BME280;44529;47.464;19.014;2023-05-15T14:57:01;99589.37;;;17.00;96.85
58761;BME280;44529;47.464;19.014;2023-05-15T15:00:05;99590.09;;;16.97;97.31
58761;BME280;44529;47.464;19.014;2023-05-15T15:03:09;99594.69;;;16.90;99.92
58761;BME280;44529;47.464;19.014;2023-05-15T15:06:12;99603.94;;;16.82;100.00
58761;BME280;44529;47.464;19.014;2023-05-15T15:09:14;99602.72;;;16.79;100.00
58761;BME280;44529;47.464;19.014;2023-05-15T15:12:16;99603.50;;;16.79;100.00
58761;BME280;44529;47.464;19.014;2023-05-15T15:15:19;99605.50;;;16.83;100.00
58761;BME280;44529;47.464;19.014;2023-05-15T15:18:23;99602.47;;;16.88;100.00
58761;BME280;44529;47.464;19.014;2023-05-15T15:21:25;99612.66;;;16.91;100.00
58761;BME280;44529;47.464;19.014;2023-05-15T15:24:28;99608.12;;;17.02;99.15
58761;BME280;44529;47.464;19.014;2023-05-15T15:27:31;99622.97;;;17.04;99.46
58761;BME280;44529;47.464;19.014;2023-05-15T15:30:34;99622.28;;;17.11;100.00
58761;BME280;44529;47.464;19.014;2023-05-15T15:33:36;99622.75;;;17.17;99.91
58761;BME280;44529;47.464;19.014;2023-05-15T15:36:38;99617.69;;;17.19;98.88
58761;BME280;44529;47.464;19.014;2023-05-15T15:39:42;99613.47;;;17.25;97.51
58761;BME280;44529;47.464;19.014;2023-05-15T15:42:44;99617.81;;;17.29;98.15
58761;BME280;44529;47.464;19.014;2023-05-15T15:45:47;99621.75;;;17.32;97.47
58761;BME280;44529;47.464;19.014;2023-05-15T15:48:49;99626.81;;;17.30;97.63
58761;BME280;44529;47.464;19.014;2023-05-15T15:51:51;99628.28;;;17.24;97.61
58761;BME280;44529;47.464;19.014;2023-05-15T15:54:54;99621.66;;;17.25;97.27
58761;BME280;44529;47.464;19.014;2023-05-15T15:57:56;99641.16;;;17.23;98.45
58761;BME280;44529;47.464;19.014;2023-05-15T16:00:59;99631.00;;;17.20;98.36
58761;BME280;44529;47.464;19.014;2023-05-15T16:04:01;99627.78;;;17.15;98.27
58761;BME280;44529;47.464;19.014;2023-05-15T16:07:04;99626.22;;;17.14;100.00
58761;BME280;44529;47.464;19.014;2023-05-15T16:10:07;99628.50;;;17.08;100.00
58761;BME280;44529;47.464;19.014;2023-05-15T16:13:14;99621.13;;;17.12;98.56
58761;BME280;44529;47.464;19.014;2023-05-15T16:16:16;99627.00;;;17.14;97.73
58761;BME280;44529;47.464;19.014;2023-05-15T16:19:19;99625.06;;;17.15;96.67
58761;BME280;44529;47.464;19.014;2023-05-15T16:22:22;99619.16;;;17.13;97.03